Terminal Aerodrome Forecast
Issued by NWS

Home | Current Version | Previous Version | Text Only | Print | Product List | Glossary On
Versions: 1 2 3 4 5 6 7 8 9 10 11 12 13 14 15 16 17 18 19 20 21 22 23 24 25 26 27 28
000
FTUS41 KGYX 202200 AAA
TAFAUG
TAF AMD
KAUG 202200Z 2022/2118 31010G14KT P6SM BKN070
     FM202300 30008KT P6SM FEW100
     FM210400 VRB04KT P6SM SKC
     FM211400 21008KT P6SM SKC=

USA.gov is the U.S. government's official web portal to all federal, state and local government web resources and services.